createdAt,value
2018-05-13T00:01:22.973Z,55.80
2018-05-13T00:03:50.625Z,55.70
2018-05-13T00:06:18.318Z,56.50
2018-05-13T00:08:45.941Z,55.80
2018-05-13T00:11:13.590Z,55.50
2018-05-13T00:13:41.225Z,55.30
2018-05-13T00:16:09.699Z,55.80
2018-05-13T00:18:38.916Z,55.60
2018-05-13T00:21:07.339Z,55.60
2018-05-13T00:23:34.951Z,55.50
2018-05-13T00:26:03.355Z,55.80
2018-05-13T00:28:30.986Z,55.80
2018-05-13T00:30:59.362Z,55.90
2018-05-13T00:33:27.780Z,55.60
2018-05-13T00:35:55.471Z,55.40
2018-05-13T00:38:23.094Z,55.50
2018-05-13T00:40:50.778Z,55.40
2018-05-13T00:43:18.384Z,55.20
2018-05-13T00:45:46.781Z,55.20
2018-05-13T00:48:15.196Z,54.90
2018-05-13T00:50:42.971Z,54.90
2018-05-13T00:53:10.520Z,55.50
2018-05-13T00:55:38.159Z,55.20
2018-05-13T00:58:06.691Z,55.40
2018-05-13T01:00:34.450Z,55.40
2018-05-13T01:03:02.080Z,55.40
2018-05-13T01:05:31.462Z,55.40
2018-05-13T01:07:59.253Z,55.60
2018-05-13T01:10:26.955Z,55.20
2018-05-13T01:12:55.733Z,55.00
2018-05-13T01:15:23.409Z,55.20
2018-05-13T01:17:51.165Z,55.50
2018-05-13T01:20:18.814Z,55.10
2018-05-13T01:22:46.427Z,55.30
2018-05-13T01:25:14.800Z,55.40
2018-05-13T01:27:43.212Z,55.50
2018-05-13T01:30:10.836Z,55.50
2018-05-13T01:32:40.001Z,56.00
2018-05-13T01:35:07.614Z,56.00
2018-05-13T01:37:36.021Z,55.50
2018-05-13T01:40:03.740Z,55.50
2018-05-13T01:42:31.410Z,55.80
2018-05-13T01:44:59.790Z,55.70
2018-05-13T01:47:28.205Z,56.10
2018-05-13T01:49:55.825Z,55.50
2018-05-13T01:52:24.373Z,55.60
2018-05-13T01:54:51.995Z,55.50
2018-05-13T01:57:19.641Z,56.10
2018-05-13T01:59:48.335Z,55.90
2018-05-13T02:02:16.769Z,56.20
2018-05-13T02:04:44.423Z,56.10
2018-05-13T02:07:12.077Z,56.00
2018-05-13T02:09:39.684Z,57.00
2018-05-13T02:12:08.080Z,56.40
2018-05-13T02:14:36.480Z,56.40
2018-05-13T02:17:04.094Z,56.40
2018-05-13T02:19:33.264Z,56.50
2018-05-13T02:22:00.881Z,56.50
2018-05-13T02:24:29.309Z,56.90
2018-05-13T02:26:56.948Z,56.80
2018-05-13T02:29:24.593Z,56.70
2018-05-13T02:31:52.217Z,56.40
2018-05-13T02:34:19.860Z,56.90
2018-05-13T02:36:47.496Z,56.60
2018-05-13T02:39:15.134Z,56.50
2018-05-13T02:41:43.510Z,56.60
2018-05-13T02:44:11.912Z,56.80
2018-05-13T02:46:39.524Z,56.70
2018-05-13T02:49:07.935Z,57.10
2018-05-13T02:51:36.364Z,56.90
2018-05-13T02:54:04.027Z,56.80
2018-05-13T02:56:31.693Z,57.10
2018-05-13T02:58:59.342Z,57.40
2018-05-13T03:01:26.958Z,56.90
2018-05-13T03:03:54.670Z,56.80
2018-05-13T03:06:22.544Z,57.40
2018-05-13T03:08:50.195Z,57.00
2018-05-13T03:11:17.808Z,57.10
2018-05-13T03:13:46.248Z,56.80
2018-05-13T03:16:13.895Z,56.70
2018-05-13T03:18:41.513Z,57.30
2018-05-13T03:21:09.953Z,57.20
2018-05-13T03:23:37.579Z,57.10
2018-05-13T03:26:05.231Z,57.20
2018-05-13T03:28:32.869Z,57.20
2018-05-13T03:31:01.282Z,57.00
2018-05-13T03:33:29.677Z,57.10
2018-05-13T03:35:57.347Z,57.10
2018-05-13T03:38:24.979Z,57.40
2018-05-13T03:40:52.625Z,57.10
2018-05-13T03:43:20.997Z,57.10
2018-05-13T03:45:49.410Z,56.80
2018-05-13T03:48:17.084Z,56.80
2018-05-13T03:50:44.737Z,56.90
2018-05-13T03:53:12.368Z,57.20
2018-05-13T03:55:40.773Z,57.50
2018-05-13T03:58:08.384Z,57.50
2018-05-13T04:00:36.152Z,57.80
2018-05-13T04:03:03.769Z,57.70
2018-05-13T04:05:31.464Z,57.90
2018-05-13T04:11:21.779Z,57.90
2018-05-13T04:14:01.648Z,58.30
2018-05-13T04:16:30.104Z,58.10
2018-05-13T04:18:57.723Z,58.00
2018-05-13T04:21:25.369Z,58.40
2018-05-13T04:23:53.748Z,59.10
2018-05-13T04:26:22.156Z,59.20
2018-05-13T04:28:49.838Z,59.10
2018-05-13T04:31:17.502Z,60.00
2018-05-13T04:33:45.138Z,60.10
2018-05-13T04:36:13.036Z,59.70
2018-05-13T04:38:40.765Z,61.80
2018-05-13T04:41:08.384Z,61.50
2018-05-13T04:43:36.024Z,62.00
2018-05-13T04:46:03.646Z,61.60
2018-05-13T04:48:31.451Z,61.90
2018-05-13T04:50:59.311Z,60.80
2018-05-13T04:53:26.953Z,61.40
2018-05-13T04:55:54.579Z,61.40
2018-05-13T04:58:22.987Z,61.90
2018-05-13T05:00:50.612Z,61.80
2018-05-13T05:03:19.954Z,62.20
2018-05-13T05:05:47.662Z,62.20
2018-05-13T05:08:15.307Z,62.30
2018-05-13T05:10:42.917Z,61.60
2018-05-13T05:13:11.320Z,61.60
2018-05-13T05:15:38.954Z,61.60
2018-05-13T05:18:07.362Z,63.50
2018-05-13T05:20:34.998Z,63.50
2018-05-13T05:23:03.436Z,61.60
2018-05-13T05:25:31.052Z,61.50
2018-05-13T05:27:58.801Z,62.30
2018-05-13T05:30:27.220Z,61.90
2018-05-13T05:32:54.841Z,61.30
2018-05-13T05:35:23.259Z,61.10
2018-05-13T05:37:50.876Z,61.00
2018-05-13T05:40:19.318Z,62.40
2018-05-13T05:42:46.931Z,62.30
2018-05-13T05:45:15.317Z,63.00
2018-05-13T05:47:43.745Z,63.30
2018-05-13T05:50:11.373Z,63.30
2018-05-13T05:52:39.030Z,62.00
2018-05-13T05:55:06.636Z,61.30
2018-05-13T05:57:34.388Z,61.40
2018-05-13T06:00:02.009Z,62.10
2018-05-13T06:02:30.438Z,61.90
2018-05-13T06:04:58.104Z,61.90
2018-05-13T06:07:25.757Z,61.70
2018-05-13T06:09:53.383Z,62.90
2018-05-13T06:12:21.056Z,61.70
2018-05-13T06:14:49.450Z,61.00
2018-05-13T06:17:17.080Z,61.00
2018-05-13T06:19:45.555Z,60.80
2018-05-13T06:22:13.281Z,60.70
2018-05-13T06:24:40.927Z,60.40
2018-05-13T06:27:08.539Z,60.80
2018-05-13T06:29:36.962Z,60.70
2018-05-13T06:32:04.576Z,60.60
2018-05-13T06:34:33.004Z,59.50
2018-05-13T06:37:00.618Z,59.40
2018-05-13T06:39:29.031Z,60.40
2018-05-13T06:41:56.746Z,60.40
2018-05-13T06:44:25.192Z,60.50
2018-05-13T06:46:52.859Z,60.50
2018-05-13T06:49:20.529Z,60.60
2018-05-13T06:51:48.143Z,61.10
2018-05-13T06:54:15.830Z,60.50
2018-05-13T06:56:43.470Z,60.00
2018-05-13T06:59:11.138Z,59.60
2018-05-13T07:01:38.757Z,59.50
2018-05-13T07:04:07.952Z,58.90
2018-05-13T07:06:35.593Z,58.80
2018-05-13T07:09:03.256Z,57.80
2018-05-13T07:11:31.029Z,57.90
2018-05-13T07:13:58.884Z,58.20
2018-05-13T07:16:26.658Z,58.30
2018-05-13T07:18:55.034Z,59.30
2018-05-13T07:21:22.810Z,59.10
2018-05-13T07:23:50.417Z,58.90
2018-05-13T07:26:18.835Z,57.50
2018-05-13T07:28:46.501Z,57.40
2018-05-13T07:31:14.157Z,57.50
2018-05-13T07:33:41.782Z,57.40
2018-05-13T07:36:10.195Z,58.00
2018-05-13T07:38:37.856Z,58.00
2018-05-13T07:41:05.524Z,56.40
2018-05-13T07:43:33.216Z,56.40
2018-05-13T07:46:00.824Z,56.90
2018-05-13T07:48:28.444Z,56.50
2018-05-13T07:50:56.089Z,56.10
2018-05-13T07:53:23.727Z,55.70
2018-05-13T07:55:51.378Z,55.60
2018-05-13T07:58:19.002Z,55.30
2018-05-13T08:00:47.476Z,55.40
2018-05-13T08:03:15.089Z,55.40
2018-05-13T08:05:42.739Z,55.40
2018-05-13T08:08:10.356Z,54.50
2018-05-13T08:10:38.012Z,55.20
2018-05-13T08:13:05.627Z,54.20
2018-05-13T08:15:33.268Z,54.70
2018-05-13T08:18:01.690Z,53.80
2018-05-13T08:20:29.366Z,53.70
2018-05-13T08:22:56.970Z,53.50
2018-05-13T08:25:25.333Z,54.00
2018-05-13T08:27:53.755Z,53.40
2018-05-13T08:30:21.412Z,53.30
2018-05-13T08:32:49.062Z,53.00
2018-05-13T08:35:16.697Z,53.80
2018-05-13T08:37:44.346Z,52.70
2018-05-13T08:40:12.196Z,53.70
2018-05-13T08:42:39.909Z,52.20
2018-05-13T08:45:08.433Z,52.70
2018-05-13T08:47:36.117Z,52.60
2018-05-13T08:50:03.797Z,52.20
2018-05-13T08:52:31.522Z,52.20
2018-05-13T08:54:59.205Z,52.20
2018-05-13T08:57:26.856Z,50.80
2018-05-13T08:59:54.467Z,51.00
2018-05-13T09:02:22.877Z,51.60
2018-05-13T09:04:50.514Z,51.60
2018-05-13T09:07:18.175Z,50.70
2018-05-13T09:09:45.811Z,50.10
2018-05-13T09:12:14.228Z,49.80
2018-05-13T09:14:42.138Z,49.80
2018-05-13T09:17:09.802Z,49.60
2018-05-13T09:19:37.420Z,50.00
2018-05-13T09:22:05.073Z,49.70
2018-05-13T09:24:33.499Z,49.90
2018-05-13T09:27:01.157Z,49.80
2018-05-13T09:29:29.128Z,50.00
2018-05-13T09:31:56.728Z,50.20
2018-05-13T09:34:25.154Z,49.00
2018-05-13T09:36:52.772Z,49.00
2018-05-13T09:39:21.295Z,48.70
2018-05-13T09:41:49.629Z,49.20
2018-05-13T09:44:18.051Z,49.20
2018-05-13T09:46:45.673Z,49.20
2018-05-13T09:49:14.115Z,48.20
2018-05-13T09:51:41.920Z,48.10
2018-05-13T09:54:10.435Z,47.50
2018-05-13T09:56:38.427Z,47.50
2018-05-13T09:59:06.094Z,47.40
2018-05-13T10:01:33.713Z,47.70
2018-05-13T10:04:01.406Z,47.00
2018-05-13T10:06:29.500Z,47.30
2018-05-13T10:08:57.155Z,47.40
2018-05-13T10:11:24.787Z,46.30
2018-05-13T10:13:52.441Z,46.70
2018-05-13T10:16:20.062Z,46.10
2018-05-13T10:18:48.819Z,45.70
2018-05-13T10:21:16.434Z,45.70
2018-05-13T10:23:44.823Z,46.00
2018-05-13T10:26:15.254Z,46.00
2018-05-13T10:28:43.054Z,46.70
2018-05-13T10:31:12.817Z,46.40
2018-05-13T10:33:43.072Z,45.40
2018-05-13T10:36:12.951Z,45.40
2018-05-13T10:38:43.611Z,45.10
2018-05-13T10:41:14.455Z,44.70
2018-05-13T10:43:43.597Z,44.70
2018-05-13T10:46:13.448Z,44.40
2018-05-13T10:48:43.867Z,43.70
2018-05-13T10:51:14.461Z,44.10
2018-05-13T10:53:43.025Z,43.40
2018-05-13T10:56:10.713Z,43.30
2018-05-13T10:58:38.340Z,43.50
2018-05-13T11:01:06.316Z,43.60
2018-05-13T11:03:34.202Z,43.40
2018-05-13T11:06:01.866Z,42.70
2018-05-13T11:08:29.613Z,42.40
2018-05-13T11:10:57.248Z,42.10
2018-05-13T11:13:24.948Z,42.50
2018-05-13T11:15:52.818Z,42.00
2018-05-13T11:18:20.578Z,41.80
2018-05-13T11:20:48.417Z,41.50
2018-05-13T11:23:16.764Z,42.20
2018-05-13T11:25:45.161Z,42.00
2018-05-13T11:28:12.879Z,41.90
2018-05-13T11:30:40.503Z,40.80
2018-05-13T11:33:08.163Z,40.40
2018-05-13T11:35:35.960Z,41.10
2018-05-13T11:38:03.611Z,38.90
2018-05-13T11:40:31.234Z,39.00
2018-05-13T11:42:58.891Z,39.30
2018-05-13T11:45:26.496Z,39.10
2018-05-13T11:47:54.174Z,39.80
2018-05-13T11:50:21.781Z,40.00
2018-05-13T11:52:49.840Z,39.40
2018-05-13T11:55:18.592Z,40.50
2018-05-13T11:57:46.249Z,40.30
2018-05-13T12:00:13.862Z,40.10
2018-05-13T12:02:41.563Z,39.50
2018-05-13T12:05:09.185Z,39.00
2018-05-13T12:07:37.602Z,39.00
2018-05-13T12:10:05.207Z,39.00
2018-05-13T12:12:33.853Z,39.40
2018-05-13T12:15:01.554Z,39.40
2018-05-13T12:17:29.291Z,39.50
2018-05-13T12:19:57.043Z,39.70
2018-05-13T12:22:24.712Z,39.30
2018-05-13T12:24:52.354Z,39.60
2018-05-13T12:27:19.971Z,39.60
2018-05-13T12:29:48.620Z,39.30
2018-05-13T12:32:17.325Z,39.30
2018-05-13T12:34:44.990Z,39.50
2018-05-13T12:37:12.601Z,39.90
2018-05-13T12:39:40.509Z,40.00
2018-05-13T12:42:08.154Z,39.70
2018-05-13T12:44:35.794Z,39.80
2018-05-13T12:47:03.421Z,39.70
2018-05-13T12:49:31.873Z,39.70
2018-05-13T12:51:59.484Z,39.60
2018-05-13T12:54:27.122Z,39.20
2018-05-13T12:56:55.582Z,39.60
2018-05-13T12:59:23.223Z,39.60
2018-05-13T13:01:50.865Z,39.40
2018-05-13T13:04:18.483Z,39.40
2018-05-13T13:06:46.266Z,39.80
2018-05-13T13:09:14.649Z,39.80
2018-05-13T13:11:43.065Z,39.50
2018-05-13T13:14:10.699Z,39.40
2018-05-13T13:16:38.334Z,39.10
2018-05-13T13:19:06.993Z,39.30
2018-05-13T13:21:34.645Z,39.20
2018-05-13T13:24:02.260Z,39.50
2018-05-13T13:26:30.672Z,38.60
2018-05-13T13:28:58.292Z,38.60
2018-05-13T13:31:26.707Z,39.10
2018-05-13T13:33:54.327Z,39.00
2018-05-13T13:36:22.067Z,38.70
2018-05-13T13:38:49.669Z,38.50
2018-05-13T13:41:18.075Z,39.00
2018-05-13T13:43:45.714Z,39.00
2018-05-13T13:46:13.370Z,38.50
2018-05-13T13:48:41.749Z,39.00
2018-05-13T13:51:10.156Z,38.90
2018-05-13T13:53:37.775Z,38.90
2018-05-13T13:56:05.438Z,38.50
2018-05-13T13:58:33.841Z,38.10
2018-05-13T14:01:02.304Z,38.00
2018-05-13T14:03:30.846Z,38.00
2018-05-13T14:05:58.457Z,38.00
2018-05-13T14:08:26.989Z,37.50
2018-05-13T14:10:54.963Z,38.00
2018-05-13T14:13:22.600Z,37.20
2018-05-13T14:15:50.219Z,37.30
2018-05-13T14:18:18.636Z,37.20
2018-05-13T14:20:46.249Z,37.10
2018-05-13T14:23:13.888Z,37.30
2018-05-13T14:25:41.532Z,36.80
2018-05-13T14:28:09.210Z,37.00
2018-05-13T14:30:36.849Z,37.60
2018-05-13T14:33:04.534Z,37.30
2018-05-13T14:35:32.158Z,36.90
2018-05-13T14:37:59.850Z,37.40
2018-05-13T14:40:27.484Z,36.60
2018-05-13T14:42:55.099Z,36.60
2018-05-13T14:45:22.944Z,36.60
2018-05-13T14:47:50.660Z,37.20
2018-05-13T14:50:18.239Z,37.00
2018-05-13T14:52:45.948Z,36.40
2018-05-13T14:55:15.112Z,36.30
2018-05-13T14:57:42.722Z,36.30
2018-05-13T15:00:10.360Z,36.60
2018-05-13T15:02:38.130Z,36.90
2018-05-13T15:05:05.773Z,36.20
2018-05-13T15:07:33.444Z,36.40
2018-05-13T15:10:01.078Z,36.20
2018-05-13T15:12:28.739Z,35.80
2018-05-13T15:14:56.440Z,36.20
2018-05-13T15:17:24.095Z,36.10
2018-05-13T15:19:51.941Z,35.30
2018-05-13T15:22:19.592Z,35.90
2018-05-13T15:24:47.199Z,36.10
2018-05-13T15:27:14.841Z,36.20
2018-05-13T15:29:42.450Z,35.80
2018-05-13T15:32:10.858Z,35.60
2018-05-13T15:34:38.516Z,35.50
2018-05-13T15:37:06.997Z,36.80
2018-05-13T15:39:34.669Z,36.80
2018-05-13T15:42:02.354Z,36.00
2018-05-13T15:44:29.977Z,36.20
2018-05-13T15:46:57.620Z,35.60
2018-05-13T15:49:26.019Z,35.50
2018-05-13T15:51:53.660Z,35.40
2018-05-13T15:54:22.100Z,35.60
2018-05-13T15:56:49.789Z,35.60
2018-05-13T15:59:17.423Z,35.70
2018-05-13T16:01:45.071Z,34.80
2018-05-13T16:04:12.695Z,34.40
2018-05-13T16:06:41.120Z,34.30
2018-05-13T16:09:08.797Z,34.30
2018-05-13T16:11:36.416Z,34.50
2018-05-13T16:14:04.054Z,34.90
2018-05-13T16:16:32.432Z,33.90
2018-05-13T16:19:00.088Z,33.80
2018-05-13T16:21:27.727Z,34.30
2018-05-13T16:23:55.381Z,35.20
2018-05-13T16:26:23.048Z,35.40
2018-05-13T16:28:50.658Z,35.30
2018-05-13T16:31:19.105Z,34.80
2018-05-13T16:33:46.720Z,34.20
2018-05-13T16:36:14.357Z,34.20
2018-05-13T16:38:42.729Z,34.40
2018-05-13T16:41:11.136Z,34.50
2018-05-13T16:43:38.828Z,34.40
2018-05-13T16:46:06.464Z,34.50
2018-05-13T16:48:34.085Z,33.60
2018-05-13T16:51:01.721Z,33.40
2018-05-13T16:53:29.331Z,33.80
2018-05-13T16:55:57.960Z,32.60
2018-05-13T16:58:25.773Z,32.60
2018-05-13T17:00:54.218Z,33.50
2018-05-13T17:03:21.828Z,33.40
2018-05-13T17:05:50.266Z,32.10
2018-05-13T17:08:17.892Z,32.10
2018-05-13T17:10:45.538Z,32.80
2018-05-13T17:13:13.462Z,33.10
2018-05-13T17:15:41.143Z,32.50
2018-05-13T17:18:09.686Z,32.60
2018-05-13T17:20:37.533Z,32.50
2018-05-13T17:23:05.193Z,31.90
2018-05-13T17:25:32.828Z,32.20
2018-05-13T17:28:01.389Z,32.50
2018-05-13T17:30:29.144Z,32.40
2018-05-13T17:32:56.830Z,32.60
2018-05-13T17:35:25.213Z,33.60
2018-05-13T17:37:53.937Z,32.60
2018-05-13T17:40:21.553Z,32.60
2018-05-13T17:42:49.945Z,32.10
2018-05-13T17:45:18.388Z,33.00
2018-05-13T17:47:46.096Z,32.80
2018-05-13T17:50:14.586Z,33.20
2018-05-13T17:52:42.451Z,33.30
2018-05-13T17:55:10.131Z,32.20
2018-05-13T17:57:37.768Z,31.80
2018-05-13T18:00:05.405Z,32.70
2018-05-13T18:02:33.111Z,33.00
2018-05-13T18:05:00.909Z,33.60
2018-05-13T18:07:28.546Z,32.80
2018-05-13T18:09:56.166Z,33.10
2018-05-13T18:12:24.707Z,34.00
2018-05-13T18:14:52.314Z,33.90
2018-05-13T18:17:20.750Z,33.00
2018-05-13T18:19:48.360Z,33.00
2018-05-13T18:22:16.790Z,34.20
2018-05-13T18:24:44.550Z,34.20
2018-05-13T18:27:12.436Z,33.20
2018-05-13T18:29:40.063Z,33.40
2018-05-13T18:32:07.869Z,33.70
2018-05-13T18:34:35.492Z,33.60
2018-05-13T18:37:03.151Z,34.10
2018-05-13T18:39:30.769Z,34.10
2018-05-13T18:41:58.420Z,33.80
2018-05-13T18:44:27.848Z,34.50
2018-05-13T18:46:56.736Z,34.60
2018-05-13T18:49:25.200Z,35.00
2018-05-13T18:51:52.965Z,35.00
2018-05-13T18:54:20.622Z,35.20
2018-05-13T18:56:49.322Z,35.70
2018-05-13T18:59:18.481Z,36.10
2018-05-13T19:01:46.110Z,36.10
2018-05-13T19:04:13.760Z,36.10
2018-05-13T19:06:42.196Z,36.20
2018-05-13T19:09:09.872Z,36.20
2018-05-13T19:11:37.499Z,36.60
2018-05-13T19:14:05.241Z,36.80
2018-05-13T19:16:32.876Z,36.20
2018-05-13T19:19:01.616Z,36.80
2018-05-13T19:21:29.357Z,36.70
2018-05-13T19:23:58.613Z,37.00
2018-05-13T19:26:26.318Z,37.00
2018-05-13T19:28:53.944Z,37.10
2018-05-13T19:31:22.355Z,37.70
2018-05-13T19:33:50.985Z,38.00
2018-05-13T19:36:18.607Z,38.00
2018-05-13T19:38:46.261Z,37.60
2018-05-13T19:41:14.668Z,37.80
2018-05-13T19:43:42.281Z,37.80
2018-05-13T19:46:09.917Z,37.70
2018-05-13T19:48:38.184Z,38.30
2018-05-13T19:51:05.825Z,38.10
2018-05-13T19:53:33.437Z,38.80
2018-05-13T19:56:01.073Z,38.50
2018-05-13T19:58:28.681Z,38.80
2018-05-13T20:00:57.261Z,39.10
2018-05-13T20:03:29.044Z,38.70
2018-05-13T20:05:56.581Z,38.60
2018-05-13T20:08:24.958Z,38.60
2018-05-13T20:10:53.330Z,38.60
2018-05-13T20:13:20.981Z,38.50
2018-05-13T20:15:48.820Z,38.80
2018-05-13T20:18:16.468Z,39.60
2018-05-13T20:20:44.220Z,39.20
2018-05-13T20:23:31.796Z,39.20
2018-05-13T20:25:59.417Z,39.50
2018-05-13T20:28:27.073Z,39.90
2018-05-13T20:30:54.684Z,40.00
2018-05-13T20:33:22.293Z,39.70
2018-05-13T20:35:49.994Z,39.60
2018-05-13T20:38:17.612Z,39.80
2018-05-13T20:40:45.259Z,40.20
2018-05-13T20:43:13.688Z,40.20
2018-05-13T20:45:41.402Z,40.20
2018-05-13T20:48:09.783Z,40.30
2018-05-13T20:50:38.163Z,40.30
2018-05-13T20:53:06.570Z,40.60
2018-05-13T20:55:34.252Z,40.60
2018-05-13T20:58:01.909Z,40.80
2018-05-13T21:00:29.524Z,40.70
2018-05-13T21:02:57.956Z,41.00
2018-05-13T21:07:59.933Z,40.50
2018-05-13T21:10:27.549Z,41.10
2018-05-13T21:12:55.928Z,41.10
2018-05-13T21:15:24.331Z,41.00
2018-05-13T21:17:51.942Z,40.90
2018-05-13T21:20:19.590Z,40.70
2018-05-13T21:22:47.216Z,40.80
2018-05-13T21:25:15.130Z,41.30
2018-05-13T21:27:42.796Z,41.20
2018-05-13T21:30:10.469Z,41.40
2018-05-13T21:32:38.091Z,41.80
2018-05-13T21:35:05.725Z,41.60
2018-05-13T21:37:33.534Z,41.40
2018-05-13T21:40:12.993Z,41.80
2018-05-13T21:42:40.630Z,42.00
2018-05-13T21:45:08.269Z,42.40
2018-05-13T21:47:35.900Z,42.30
2018-05-13T21:50:04.311Z,42.30
2018-05-13T21:52:31.919Z,42.20
2018-05-13T21:54:59.540Z,42.30
2018-05-13T21:57:27.182Z,42.70
2018-05-13T21:59:54.806Z,42.80
2018-05-13T22:02:22.556Z,43.10
2018-05-13T22:04:59.221Z,43.00
2018-05-13T22:07:26.872Z,43.40
2018-05-13T22:09:54.483Z,43.40
2018-05-13T22:12:22.880Z,43.80
2018-05-13T22:14:50.498Z,43.70
2018-05-13T22:17:18.136Z,43.90
2018-05-13T22:19:45.745Z,43.80
2018-05-13T22:22:14.224Z,44.00
2018-05-13T22:24:42.673Z,44.20
2018-05-13T22:27:10.315Z,44.10
2018-05-13T22:29:37.922Z,44.10
2018-05-13T22:32:05.701Z,44.10
2018-05-13T22:34:34.091Z,44.60
2018-05-13T22:37:01.738Z,44.50
2018-05-13T22:39:30.197Z,44.50
2018-05-13T22:41:57.848Z,44.40
2018-05-13T22:44:25.479Z,44.50
2018-05-13T22:46:53.112Z,44.60
2018-05-13T22:49:21.493Z,44.90
2018-05-13T22:51:49.893Z,44.90
2018-05-13T22:54:17.509Z,44.90
2018-05-13T22:56:45.911Z,45.00
2018-05-13T22:59:14.289Z,45.20
2018-05-13T23:01:43.037Z,45.20
2018-05-13T23:04:10.714Z,45.20
2018-05-13T23:06:39.112Z,45.20
2018-05-13T23:09:07.559Z,45.10
2018-05-13T23:11:35.180Z,45.10
2018-05-13T23:14:02.804Z,45.40
2018-05-13T23:16:31.261Z,46.20
2018-05-13T23:18:58.900Z,45.50
2018-05-13T23:21:26.512Z,45.70
2018-05-13T23:23:54.164Z,45.50
2018-05-13T23:26:23.316Z,45.60
2018-05-13T23:28:50.927Z,45.60
2018-05-13T23:31:18.564Z,45.80
2018-05-13T23:33:46.177Z,45.80
2018-05-13T23:36:14.603Z,46.00
2018-05-13T23:38:42.241Z,45.90
2018-05-13T23:41:09.915Z,46.30
2018-05-13T23:43:37.488Z,46.40
2018-05-13T23:46:05.143Z,46.40
2018-05-13T23:48:32.756Z,46.60
2018-05-13T23:51:01.138Z,46.50
2018-05-13T23:53:29.575Z,46.60
2018-05-13T23:55:57.198Z,46.60
2018-05-13T23:58:24.813Z,46.70
